Airfield :
LOGIN :

Register | Disclaimer

   EN    FR    IT 

 










Legend :    VFR   Marginal VFR   IFR   Intensive IFR   Very Intensive IFR
Visi :
Ceiling :
>= 8 km
>= 3000ft
5 to 8 km
1000 to 3000 ft
1500m to 5 km
500 to 1000 ft
800 to 1500m
200 to 500 ft
< 800m
< 200 ft
Symbols :   Thunderstorms  Fog  Heavy snow  Heavy precipitations  Wind > 20 kt
SIGMETs :     Misc.  Thunderstorms  Icing  Turbulence  Mountain Waves  Volcanic Ashes







- Airport Elevation : 776 ft
- IATA code : RMS


ETAR - Ramstein Air Base

CURRENT METAR :
  • 251656Z AUTO 36004KT 9999 SCT050 21/11 A3021 RMK AO2 SLP229 T02140105 $

EXPIRED METARs :
  • 251556Z AUTO 36006KT 9999 BKN049 21/11 A3021 RMK AO2 SLP230 T02080109 $
  • 251456Z AUTO 04007KT 9999 FEW047 SCT055 SCT170 21/11 A3022 RMK AO2 SLP232 T02050114 55001 $

TAF TAF ETAR
Valid from the 25 at 10:00 until the 26 at 16:00 UTC


251003Z 2510/2616 01009KT 9999 BKN030 QNH3020INS
BECMG 2600/2601 VRB06KT 8000 BR SCT025 BKN060 QNH3021INS
BECMG 2606/2607 01009KT 9999 NSW SCT035 QNH3017INS TX21/2610Z TN10/2603Z
No reported NOTAMs for that airfield.



MET'MAP, your aeronautical weather chart ! - Copyright ORBIFLY December 2007 - Disclaimer

ORBIFLY MET'MAP TEAM :

Programming & Development : Alexandra Zaïnal
Concept & Development : Baudouin d'Aumeries
Co-Development & Prog : Marc-Olivier Méhu
Technical & hardware support : Manuel Goepfert

Contact : metmap@orbifly.com




SOURCES & CREDITS :

   NOAA